Time;durP1;ratioP1;P1;durP2;ratioP2;P2;SDS_P1;SDS_P2;PMS_P1;PMS_P2;Temp;Humidity;BMP_temperature;BMP_pressure;BME280_temperature;BME280_humidity;BME280_pressure;Samples;Min_cycle;Max_cycle;Signal;HPM_P1;HPM_P2
2022/07/25 00:02:03;;;;;;;23.53;11.07;;;;;;;27.89;55.28;99282.47;5136897;27;20232;-69
2022/07/25 00:04:30;;;;;;;11.73;9.97;;;;;;;27.60;56.14;99282.91;5136102;27;20273;-69
2022/07/25 00:06:57;;;;;;;24.07;11.13;;;;;;;27.43;58.41;99291.00;5135892;27;20218;-69
2022/07/25 00:09:23;;;;;;;29.27;10.70;;;;;;;27.30;58.82;99301.97;5136209;27;20189;-69
2022/07/25 00:11:50;;;;;;;28.93;11.27;;;;;;;27.23;63.71;99307.84;5136160;27;20202;-69
2022/07/25 00:14:18;;;;;;;13.03;10.63;;;;;;;27.14;64.09;99308.84;5136109;27;20250;-69
2022/07/25 00:16:45;;;;;;;14.00;10.37;;;;;;;26.92;63.92;99306.09;5136389;27;20186;-69
2022/07/25 00:19:12;;;;;;;17.60;10.23;;;;;;;26.82;65.36;99307.13;5136101;27;20263;-68
2022/07/25 00:21:39;;;;;;;17.77;10.17;;;;;;;26.81;64.76;99310.16;5136565;27;20194;-69
2022/07/25 00:24:06;;;;;;;18.50;10.60;;;;;;;26.88;66.68;99316.00;5135900;27;20190;-68
2022/07/25 00:26:33;;;;;;;14.17;9.93;;;;;;;26.62;65.92;99323.13;5135878;27;20197;-68
2022/07/25 00:28:59;;;;;;;14.00;10.47;;;;;;;26.25;66.28;99315.16;5134706;27;20705;-68
2022/07/25 00:31:27;;;;;;;11.17;10.13;;;;;;;26.24;63.82;99321.69;5136213;27;20243;-68
2022/07/25 00:33:54;;;;;;;11.23;10.43;;;;;;;25.99;62.88;99333.03;5135322;27;20190;-68
2022/07/25 00:36:21;;;;;;;10.73;9.63;;;;;;;26.13;62.92;99339.34;5135977;27;20194;-68
2022/07/25 00:38:47;;;;;;;11.30;10.40;;;;;;;26.04;63.62;99341.16;5135639;27;20202;-68
2022/07/25 00:41:14;;;;;;;10.83;9.97;;;;;;;25.82;66.79;99330.06;5136121;27;20255;-68
2022/07/25 00:43:43;;;;;;;12.43;9.73;;;;;;;25.64;66.66;99341.81;5135206;27;20194;-68
2022/07/25 00:46:12;;;;;;;10.67;10.07;;;;;;;25.64;66.81;99328.22;5135458;27;20190;-68
2022/07/25 00:48:40;;;;;;;11.40;10.33;;;;;;;25.71;67.20;99328.63;5136234;27;20229;-69
2022/07/25 00:51:07;;;;;;;11.33;10.53;;;;;;;25.76;65.03;99329.34;5135130;27;20563;-69
2022/07/25 00:53:35;;;;;;;10.47;9.77;;;;;;;25.90;63.73;99324.75;5135220;27;20194;-68
2022/07/25 00:56:01;;;;;;;9.97;9.27;;;;;;;25.99;64.11;99314.00;5134940;27;20601;-68
2022/07/25 00:58:29;;;;;;;10.17;9.40;;;;;;;26.09;63.74;99313.81;5134921;27;20194;-68
2022/07/25 01:00:56;;;;;;;9.80;9.07;;;;;;;26.06;62.92;99308.97;5136022;27;20189;-68
2022/07/25 01:03:23;;;;;;;9.00;8.50;;;;;;;26.02;62.50;99308.78;5134814;27;20632;-69
2022/07/25 01:05:51;;;;;;;9.27;8.67;;;;;;;26.15;62.42;99313.41;5134728;27;20658;-69
2022/07/25 01:08:18;;;;;;;9.90;9.13;;;;;;;26.08;62.07;99312.19;5134697;27;20221;-69
2022/07/25 01:10:45;;;;;;;9.37;8.87;;;;;;;26.02;61.40;99314.22;5135193;27;20250;-69
2022/07/25 01:13:12;;;;;;;10.07;9.47;;;;;;;26.11;59.73;99317.03;5134664;27;20190;-68
2022/07/25 01:15:39;;;;;;;9.63;9.13;;;;;;;26.10;59.43;99309.97;5134597;27;20661;-68
2022/07/25 01:18:06;;;;;;;9.47;8.87;;;;;;;26.18;59.37;99314.72;5134835;27;20198;-68
2022/07/25 01:20:34;;;;;;;9.67;9.07;;;;;;;26.19;59.44;99313.63;5135019;27;20246;-68
2022/07/25 01:23:01;;;;;;;9.53;8.93;;;;;;;26.25;58.94;99315.16;5134418;27;20190;-68
2022/07/25 01:25:28;;;;;;;9.47;8.83;;;;;;;26.28;57.96;99306.34;5134331;27;20730;-68
2022/07/25 01:27:56;;;;;;;8.63;8.03;;;;;;;26.31;56.33;99311.19;5134296;27;20274;-68
2022/07/25 01:30:24;;;;;;;8.83;8.33;;;;;;;26.41;56.70;99308.28;5134328;27;20729;-68
2022/07/25 01:32:52;;;;;;;9.87;9.07;;;;;;;26.44;56.56;99310.38;5134258;27;20548;-68
2022/07/25 01:35:19;;;;;;;9.63;8.80;;;;;;;26.60;56.62;99309.00;5134257;27;20194;-68
2022/07/25 01:37:47;;;;;;;9.43;8.77;;;;;;;26.72;56.62;99295.66;5134181;27;20198;-68
2022/07/25 01:40:15;;;;;;;10.40;9.57;;;;;;;26.80;56.50;99286.75;5134277;27;20190;-68
2022/07/25 01:42:42;;;;;;;10.33;9.50;;;;;;;26.92;56.79;99284.31;5134519;27;20194;-68
2022/07/25 01:45:10;;;;;;;10.10;9.47;;;;;;;26.97;56.18;99276.81;5133979;27;20247;-68
2022/07/25 01:47:36;;;;;;;9.03;8.43;;;;;;;27.15;55.52;99289.47;5133665;27;20765;-68
2022/07/25 01:50:04;;;;;;;8.40;7.90;;;;;;;27.34;54.85;99289.31;5134002;27;20186;-68
2022/07/25 01:52:31;;;;;;;9.97;9.07;;;;;;;27.41;55.23;99281.50;5133893;27;20194;-68
2022/07/25 01:54:59;;;;;;;10.23;9.60;;;;;;;27.38;55.85;99273.94;5133884;27;20243;-69
2022/07/25 01:57:26;;;;;;;10.03;9.43;;;;;;;27.29;55.99;99270.34;5133773;27;20658;-68
2022/07/25 01:59:53;;;;;;;10.70;9.70;;;;;;;27.27;56.07;99264.41;5134102;27;20201;-68
2022/07/25 02:02:19;;;;;;;11.13;10.33;;;;;;;27.29;56.71;99253.97;5134244;27;20260;-69
2022/07/25 02:04:46;;;;;;;10.80;9.80;;;;;;;27.32;55.68;99243.25;5133696;27;20242;-69
2022/07/25 02:07:13;;;;;;;10.87;9.97;;;;;;;27.34;55.76;99234.75;5133899;27;20687;-69
2022/07/25 02:09:40;;;;;;;10.30;9.57;;;;;;;27.29;56.39;99226.69;5133586;27;20190;-68
2022/07/25 02:12:09;;;;;;;10.43;9.73;;;;;;;27.21;55.79;99219.28;5134375;27;20205;-68
2022/07/25 02:14:35;;;;;;;10.10;9.50;;;;;;;27.30;55.84;99214.66;5134307;27;20187;-68
2022/07/25 02:17:02;;;;;;;10.40;9.67;;;;;;;27.27;56.36;99212.59;5133406;27;20543;-69
2022/07/25 02:19:29;;;;;;;11.00;10.30;;;;;;;27.03;57.31;99214.78;5134017;27;20597;-68
2022/07/25 02:21:55;;;;;;;10.70;10.00;;;;;;;26.75;58.03;99213.28;5133660;27;20190;-68
2022/07/25 02:24:22;;;;;;;10.67;10.07;;;;;;;26.51;59.18;99202.63;5133630;27;20189;-68
2022/07/25 02:26:49;;;;;;;11.23;10.30;;;;;;;26.29;59.99;99197.09;5133528;27;20254;-68
2022/07/25 02:29:17;;;;;;;10.80;10.10;;;;;;;26.26;59.79;99194.19;5133498;27;20271;-68
2022/07/25 02:31:44;;;;;;;10.30;9.70;;;;;;;26.23;59.86;99192.06;5133162;27;20614;-68
2022/07/25 02:34:11;;;;;;;11.30;10.50;;;;;;;26.26;60.03;99186.03;5133187;27;20194;-68
2022/07/25 02:36:38;;;;;;;10.60;9.70;;;;;;;26.27;59.43;99179.47;5133933;27;20266;-68
2022/07/25 02:39:05;;;;;;;9.87;9.20;;;;;;;26.19;58.98;99177.44;5133626;27;20194;-68
2022/07/25 02:41:32;;;;;;;9.47;8.97;;;;;;;26.18;58.73;99182.09;5133378;27;20321;-68
2022/07/25 02:43:59;;;;;;;9.57;8.80;;;;;;;26.30;58.29;99184.31;5133352;27;20379;-68
2022/07/25 02:46:27;;;;;;;9.97;9.17;;;;;;;26.29;58.29;99183.47;5133015;27;20194;-68
2022/07/25 02:48:54;;;;;;;9.17;8.60;;;;;;;26.54;57.81;99198.47;5133834;27;20225;-68
2022/07/25 02:51:20;;;;;;;9.20;8.60;;;;;;;26.75;56.97;99196.94;5132988;27;20190;-68
2022/07/25 02:53:47;;;;;;;9.50;9.00;;;;;;;26.84;56.44;99201.34;5132966;27;20254;-68
2022/07/25 02:56:14;;;;;;;10.07;9.10;;;;;;;26.98;55.79;99202.06;5133491;27;20202;-68
2022/07/25 02:58:40;;;;;;;9.10;8.50;;;;;;;27.09;55.88;99205.34;5133142;28;20200;-69
2022/07/25 03:01:07;;;;;;;9.20;8.40;;;;;;;27.23;54.91;99206.94;5132820;27;20663;-68
2022/07/25 03:03:35;;;;;;;9.83;9.10;;;;;;;27.23;54.87;99219.78;5133132;27;20247;-68
2022/07/25 03:06:02;;;;;;;9.40;8.70;;;;;;;27.24;55.05;99210.47;5132481;28;20198;-68
2022/07/25 03:08:29;;;;;;;9.60;8.93;;;;;;;27.31;54.99;99217.09;5132648;27;20708;-68
2022/07/25 03:10:56;;;;;;;9.70;9.10;;;;;;;27.23;54.92;99219.78;5132700;27;20198;-68
2022/07/25 03:13:22;;;;;;;10.03;9.43;;;;;;;27.17;55.26;99220.97;5133555;27;20194;-68
2022/07/25 03:15:49;;;;;;;9.90;9.10;;;;;;;27.06;55.79;99227.78;5133776;27;20193;-68
2022/07/25 03:18:16;;;;;;;9.13;8.70;;;;;;;27.08;55.70;99217.38;5132711;28;20742;-68
2022/07/25 03:20:44;;;;;;;10.63;9.80;;;;;;;27.19;55.49;99226.94;5132727;27;20612;-68
2022/07/25 03:23:11;;;;;;;10.33;9.83;;;;;;;27.27;55.57;99231.69;5132879;28;20194;-69
2022/07/25 03:25:37;;;;;;;9.40;8.90;;;;;;;27.32;55.40;99228.81;5132688;27;20661;-69
2022/07/25 03:28:04;;;;;;;9.90;9.40;;;;;;;27.42;55.24;99228.53;5132787;27;20266;-69
2022/07/25 03:30:31;;;;;;;9.83;9.13;;;;;;;27.44;55.39;99237.25;5132864;27;20235;-68
2022/07/25 03:32:58;;;;;;;10.57;9.57;;;;;;;27.50;55.07;99235.97;5132863;27;20611;-69
2022/07/25 03:35:25;;;;;;;11.07;9.33;;;;;;;27.51;55.53;99243.84;5132920;27;20190;-68
2022/07/25 03:37:53;;;;;;;9.83;9.17;;;;;;;27.58;55.12;99243.41;5132715;28;20602;-68
2022/07/25 03:40:20;;;;;;;9.23;8.63;;;;;;;27.69;53.92;99244.75;5132770;28;20267;-69
2022/07/25 03:42:47;;;;;;;9.43;8.80;;;;;;;27.70;53.38;99257.28;5133452;28;20242;-69
2022/07/25 03:45:14;;;;;;;8.57;8.07;;;;;;;27.44;52.67;99253.63;5132335;27;20250;-69
2022/07/25 03:47:40;;;;;;;9.03;8.33;;;;;;;27.40;53.17;99252.63;5132383;27;20225;-69
2022/07/25 03:50:08;;;;;;;8.37;7.67;;;;;;;27.40;53.29;99253.41;5132639;27;20190;-69
2022/07/25 03:52:36;;;;;;;8.40;7.77;;;;;;;27.46;53.03;99252.19;5132345;28;20327;-69
2022/07/25 03:55:05;;;;;;;8.63;8.03;;;;;;;27.40;53.11;99255.34;5132709;27;20218;-68
2022/07/25 03:57:32;;;;;;;8.77;7.97;;;;;;;27.14;53.76;99244.22;5133421;27;20216;-68
2022/07/25 03:59:59;;;;;;;8.70;7.90;;;;;;;27.27;53.69;99256.22;5132629;27;20345;-68
2022/07/25 04:02:26;;;;;;;9.23;8.30;;;;;;;27.35;53.77;99260.91;5132563;27;20192;-68
2022/07/25 04:04:52;;;;;;;9.37;8.83;;;;;;;27.23;53.95;99255.25;5136625;27;20194;-68
2022/07/25 04:07:19;;;;;;;8.70;8.00;;;;;;;27.30;53.67;99259.13;5135871;27;20669;-68
2022/07/25 04:09:46;;;;;;;9.03;8.07;;;;;;;27.35;53.51;99255.44;5135823;27;20217;-69
2022/07/25 04:12:14;;;;;;;8.97;8.13;;;;;;;27.36;53.67;99262.53;5136669;27;20189;-69
2022/07/25 04:14:41;;;;;;;9.13;8.27;;;;;;;27.49;53.52;99261.66;5136602;27;20194;-69
2022/07/25 04:17:07;;;;;;;8.63;7.90;;;;;;;27.46;53.33;99259.56;5136021;27;20194;-69
2022/07/25 04:19:34;;;;;;;9.03;8.20;;;;;;;27.35;53.57;99263.63;5135583;27;20198;-69
2022/07/25 04:22:01;;;;;;;10.43;8.63;;;;;;;27.29;53.91;99251.25;5136676;27;20193;-69
2022/07/25 04:24:28;;;;;;;14.73;8.53;;;;;;;27.31;53.67;99259.94;5135842;27;20190;-68
2022/07/25 04:26:54;;;;;;;8.83;8.03;;;;;;;27.26;53.99;99262.78;5135382;27;20254;-68
2022/07/25 04:29:22;;;;;;;9.47;8.57;;;;;;;27.39;53.69;99253.72;5136221;27;20271;-68
2022/07/25 04:31:49;;;;;;;8.43;7.67;;;;;;;27.53;53.65;99262.66;5135678;27;20231;-68
2022/07/25 04:34:16;;;;;;;9.03;8.33;;;;;;;27.52;53.27;99261.03;5135317;27;20194;-68
2022/07/25 04:36:42;;;;;;;9.83;9.13;;;;;;;27.71;53.16;99261.63;5136117;27;20217;-68
2022/07/25 04:39:09;;;;;;;8.80;8.30;;;;;;;27.74;53.04;99264.56;5135270;27;20741;-68
2022/07/25 04:41:36;;;;;;;9.47;8.70;;;;;;;27.80;53.25;99270.66;5135580;27;20242;-68
2022/07/25 04:44:03;;;;;;;8.87;8.17;;;;;;;27.81;53.08;99269.56;5136095;27;20197;-68
2022/07/25 04:46:31;;;;;;;8.90;8.03;;;;;;;27.75;53.43;99268.06;5135125;27;20190;-68
2022/07/25 04:48:58;;;;;;;9.20;8.10;;;;;;;27.83;53.12;99270.06;5135920;27;20700;-68
2022/07/25 04:51:24;;;;;;;9.97;7.93;;;;;;;28.06;52.66;99271.63;5135038;27;20194;-68
2022/07/25 04:53:51;;;;;;;9.50;8.60;;;;;;;28.19;52.41;99276.16;5134960;27;20219;-69
2022/07/25 04:56:18;;;;;;;9.03;8.33;;;;;;;28.21;51.90;99269.25;5135749;27;20270;-69
2022/07/25 04:58:44;;;;;;;10.57;8.37;;;;;;;28.24;52.15;99276.03;5135397;27;20198;-69
2022/07/25 05:01:11;;;;;;;8.80;8.03;;;;;;;28.21;52.15;99271.19;5135251;27;20250;-69
2022/07/25 05:03:39;;;;;;;9.10;8.43;;;;;;;28.19;52.41;99271.53;5135135;27;20196;-69
2022/07/25 05:06:07;;;;;;;9.10;8.40;;;;;;;28.12;52.34;99270.34;5134656;27;20190;-69
2022/07/25 05:08:34;;;;;;;9.30;8.50;;;;;;;28.07;52.63;99273.22;5134593;27;20225;-69
2022/07/25 05:11:00;;;;;;;9.70;9.00;;;;;;;28.13;52.66;99278.22;5134512;27;20613;-68
2022/07/25 05:13:27;;;;;;;8.93;8.27;;;;;;;28.13;53.01;99272.00;5135197;27;20681;-68
2022/07/25 05:15:54;;;;;;;12.30;9.17;;;;;;;28.14;53.03;99279.06;5134535;27;20190;-68
2022/07/25 05:18:21;;;;;;;12.20;8.63;;;;;;;28.02;53.56;99270.66;5134905;27;20194;-68
2022/07/25 05:20:49;;;;;;;10.27;8.37;;;;;;;27.89;53.68;99282.47;5135721;27;20609;-68
2022/07/25 05:23:15;;;;;;;11.23;9.13;;;;;;;27.74;54.48;99280.09;5134759;27;20201;-68
2022/07/25 05:25:42;;;;;;;8.77;8.20;;;;;;;27.79;54.67;99271.78;5134498;27;20218;-68
2022/07/25 05:28:09;;;;;;;12.90;9.00;;;;;;;27.90;54.69;99278.63;5134745;27;20487;-67
2022/07/25 05:30:36;;;;;;;9.07;8.37;;;;;;;27.99;54.14;99276.72;5134167;27;20221;-69
2022/07/25 05:33:02;;;;;;;9.47;8.97;;;;;;;27.92;54.67;99276.38;5130478;27;20684;-68
2022/07/25 05:35:29;;;;;;;9.90;8.90;;;;;;;27.99;54.68;99277.53;5134436;27;20243;-68
2022/07/25 05:37:57;;;;;;;8.90;8.13;;;;;;;28.00;54.26;99278.34;5134249;27;20621;-68
2022/07/25 05:40:24;;;;;;;9.07;8.30;;;;;;;28.06;54.53;99274.34;5133589;27;20879;-66
2022/07/25 05:42:51;;;;;;;10.33;9.50;;;;;;;28.05;54.95;99276.28;5133920;27;20190;-67
2022/07/25 05:45:17;;;;;;;9.40;8.60;;;;;;;28.22;54.01;99275.53;5133206;27;20259;-65
2022/07/25 05:47:44;;;;;;;10.43;9.37;;;;;;;28.41;54.38;99276.09;5131677;27;20283;-67
2022/07/25 05:50:11;;;;;;;10.10;9.23;;;;;;;28.60;53.58;99277.44;5131859;27;20217;-67
2022/07/25 05:52:38;;;;;;;10.10;9.30;;;;;;;28.75;52.75;99284.41;5130746;27;20190;-69
2022/07/25 05:55:06;;;;;;;9.87;9.07;;;;;;;28.96;52.37;99283.44;5131481;27;20284;-67
2022/07/25 05:57:35;;;;;;;10.00;9.43;;;;;;;28.99;52.10;99277.34;5130807;27;20201;-68
2022/07/25 06:00:02;;;;;;;9.70;9.00;;;;;;;29.11;51.89;99266.56;5129582;27;20276;-70
2022/07/25 06:02:29;;;;;;;9.87;9.17;;;;;;;29.22;51.38;99283.47;5129142;27;20254;-65
2022/07/25 06:04:55;;;;;;;9.23;8.73;;;;;;;29.13;51.95;99274.47;5129527;27;20658;-72
2022/07/25 06:07:22;;;;;;;8.97;8.37;;;;;;;29.24;51.65;99271.06;5130456;27;20194;-65
2022/07/25 06:09:49;;;;;;;11.37;8.70;;;;;;;29.26;51.03;99273.50;5130607;27;20651;-66
2022/07/25 06:12:17;;;;;;;9.97;9.17;;;;;;;29.31;50.94;99276.06;5130143;27;20653;-66
2022/07/25 06:14:44;;;;;;;10.23;8.50;;;;;;;29.37;50.50;99274.78;5130247;27;20620;-67
2022/07/25 06:17:10;;;;;;;10.33;8.80;;;;;;;29.54;50.21;99277.47;5130099;27;20668;-68
2022/07/25 06:19:37;;;;;;;9.23;8.67;;;;;;;29.76;50.12;99273.75;5130293;27;20190;-65
2022/07/25 06:22:04;;;;;;;9.30;8.47;;;;;;;30.05;49.13;99274.59;5131074;27;20190;-65
2022/07/25 06:24:31;;;;;;;8.70;8.10;;;;;;;30.24;48.47;99268.75;5131022;27;20202;-67
2022/07/25 06:26:57;;;;;;;11.07;8.13;;;;;;;30.37;47.59;99279.47;5130803;27;20742;-65
2022/07/25 06:29:25;;;;;;;9.27;8.37;;;;;;;30.58;47.79;99280.31;5130870;27;20217;-68
2022/07/25 06:31:52;;;;;;;8.47;7.83;;;;;;;30.69;46.88;99283.50;5132105;27;20243;-64
2022/07/25 06:34:19;;;;;;;9.13;8.37;;;;;;;30.66;46.81;99278.69;5133492;27;20190;-65
2022/07/25 06:36:45;;;;;;;10.17;8.70;;;;;;;30.68;47.46;99282.69;5133524;27;20186;-65
2022/07/25 06:39:12;;;;;;;8.93;8.17;;;;;;;30.81;47.08;99273.44;5132927;27;20189;-66
2022/07/25 06:41:39;;;;;;;20.37;9.67;;;;;;;30.91;46.89;99275.00;5133280;27;20194;-65
2022/07/25 06:44:06;;;;;;;9.87;8.90;;;;;;;30.97;45.96;99279.94;5132762;27;20722;-66
2022/07/25 06:46:34;;;;;;;9.33;8.53;;;;;;;31.27;46.09;99267.75;5133203;27;20247;-66
2022/07/25 06:49:00;;;;;;;8.47;7.97;;;;;;;31.52;45.99;99274.16;5133313;27;20286;-66
2022/07/25 06:51:27;;;;;;;9.03;8.13;;;;;;;31.75;44.37;99278.91;5132715;27;20194;-65
2022/07/25 06:53:54;;;;;;;9.10;8.40;;;;;;;31.75;44.00;99278.09;5132754;27;20254;-65
2022/07/25 06:56:21;;;;;;;8.83;8.13;;;;;;;31.51;44.08;99278.03;5133604;27;20193;-65
2022/07/25 06:58:47;;;;;;;9.13;8.40;;;;;;;31.71;43.06;99277.16;5132843;28;20246;-65
2022/07/25 07:01:14;;;;;;;8.47;7.87;;;;;;;31.74;42.78;99271.81;5131011;28;20196;-67
2022/07/25 07:03:42;;;;;;;8.30;7.57;;;;;;;31.90;42.67;99278.28;5131183;28;20258;-66
2022/07/25 07:06:09;;;;;;;8.77;7.77;;;;;;;31.85;43.40;99267.50;5131331;27;20247;-65
2022/07/25 07:08:37;;;;;;;8.93;8.23;;;;;;;32.00;42.87;99272.34;5131216;27;20243;-67
2022/07/25 07:11:04;;;;;;;9.10;8.50;;;;;;;32.12;42.40;99282.53;5130425;27;20221;-65
2022/07/25 07:13:31;;;;;;;9.07;8.27;;;;;;;32.20;41.47;99285.19;5131198;27;20190;-66
2022/07/25 07:15:58;;;;;;;8.50;7.73;;;;;;;32.29;41.58;99274.09;5130938;27;20254;-68
2022/07/25 07:18:25;;;;;;;9.07;8.17;;;;;;;32.43;41.60;99286.38;5129351;27;20574;-66
2022/07/25 07:20:53;;;;;;;8.90;8.07;;;;;;;32.61;40.95;99282.22;5129918;27;20697;-65
2022/07/25 07:23:20;;;;;;;21.70;8.13;;;;;;;32.81;40.51;99278.56;5133427;27;20194;-65
2022/07/25 07:25:47;;;;;;;10.37;7.77;;;;;;;32.88;40.04;99273.28;5132778;27;20251;-63
2022/07/25 07:28:14;;;;;;;10.17;8.20;;;;;;;32.75;39.89;99279.91;5132340;27;20190;-66
2022/07/25 07:30:41;;;;;;;9.07;8.17;;;;;;;32.60;40.53;99277.88;5128623;27;20784;-66
2022/07/25 07:33:08;;;;;;;9.00;8.20;;;;;;;32.65;40.58;99277.63;5128984;27;20194;-64
2022/07/25 07:35:34;;;;;;;9.03;8.13;;;;;;;32.60;40.34;99280.63;5129977;27;20258;-65
2022/07/25 07:38:03;;;;;;;10.67;7.40;;;;;;;32.86;39.28;99275.56;5130184;27;20669;-64
2022/07/25 07:40:30;;;;;;;9.27;8.47;;;;;;;32.44;40.15;99279.72;5139176;27;20206;-65
2022/07/25 07:42:59;;;;;;;8.33;7.73;;;;;;;32.52;40.13;99269.72;5135008;27;20683;-64
2022/07/25 07:45:26;;;;;;;7.70;7.03;;;;;;;32.29;39.68;99266.66;5135596;27;20198;-65
2022/07/25 07:47:54;;;;;;;8.27;7.60;;;;;;;32.23;39.53;99270.75;5135651;27;20218;-64
2022/07/25 07:50:23;;;;;;;7.73;7.17;;;;;;;32.41;38.96;99269.41;5136421;27;20218;-66
2022/07/25 07:52:51;;;;;;;9.03;7.03;;;;;;;32.67;38.68;99267.06;5136487;27;20201;-64
2022/07/25 07:58:03;;;;;;;7.93;7.23;;;;;;;33.39;36.99;99262.56;5136581;27;20178;-63
2022/07/25 08:00:31;;;;;;;7.83;7.23;;;;;;;33.68;36.21;99268.47;5136457;27;20205;-63
2022/07/25 08:02:59;;;;;;;7.93;7.32;;;;;;;34.24;35.01;99258.13;5136092;27;20547;-64
2022/07/25 08:05:27;;;;;;;7.30;6.72;;;;;;;34.65;33.84;99268.59;5136422;27;20225;-63
2022/07/25 08:07:54;;;;;;;8.52;7.75;;;;;;;35.03;32.80;99274.22;5135968;27;20190;-64
2022/07/25 08:10:23;;;;;;;10.43;7.97;;;;;;;35.29;32.45;99277.16;5135794;27;20233;-64
2022/07/25 08:12:50;;;;;;;7.80;7.40;;;;;;;35.62;32.49;99277.41;5135261;27;20622;-64
2022/07/25 08:15:18;;;;;;;7.53;7.03;;;;;;;35.59;32.27;99267.88;5134607;27;20205;-66
2022/07/25 08:17:45;;;;;;;9.73;7.57;;;;;;;35.82;31.86;99267.94;5134349;27;20251;-65
2022/07/25 08:20:13;;;;;;;9.88;7.18;;;;;;;36.02;30.49;99277.78;5133518;27;20194;-66
2022/07/25 08:22:41;;;;;;;8.25;7.03;;;;;;;36.02;31.49;99272.25;5133990;27;20198;-65
2022/07/25 08:25:09;;;;;;;7.90;7.30;;;;;;;36.07;31.34;99274.69;5135412;27;20194;-69
2022/07/25 08:27:37;;;;;;;7.18;6.68;;;;;;;36.07;30.87;99258.09;5133930;27;20624;-65
2022/07/25 08:30:05;;;;;;;7.53;7.10;;;;;;;35.75;31.10;99263.06;5134897;27;20278;-66
2022/07/25 08:32:31;;;;;;;7.70;6.90;;;;;;;35.80;31.54;99262.00;5133669;27;20625;-67
2022/07/25 08:35:00;;;;;;;9.75;7.97;;;;;;;35.97;31.33;99264.25;5132496;27;20194;-66
2022/07/25 08:37:28;;;;;;;7.75;7.10;;;;;;;36.37;30.97;99270.06;5133208;27;20272;-65
2022/07/25 08:39:55;;;;;;;9.52;7.75;;;;;;;36.65;30.60;99273.28;5132518;27;20584;-67
2022/07/25 08:42:22;;;;;;;7.20;6.68;;;;;;;36.73;30.65;99269.47;5132446;27;20609;-66
2022/07/25 08:44:58;;;;;;;8.75;6.75;;;;;;;36.82;29.54;99272.75;5132841;27;20194;-66
2022/07/25 08:47:25;;;;;;;9.05;7.07;;;;;;;36.91;29.47;99267.75;5132589;27;20226;-71
2022/07/25 08:49:53;;;;;;;6.35;6.05;;;;;;;36.63;30.01;99270.09;5132802;27;20674;-65
2022/07/25 08:52:20;;;;;;;16.00;7.07;;;;;;;36.87;28.87;99269.69;5134233;27;20190;-67
2022/07/25 08:54:47;;;;;;;7.05;6.45;;;;;;;37.08;28.11;99270.72;5133154;27;20194;-68
2022/07/25 08:57:14;;;;;;;7.53;6.80;;;;;;;37.37;28.38;99266.38;5134022;27;20674;-66
2022/07/25 08:59:41;;;;;;;7.20;6.70;;;;;;;37.41;27.78;99266.41;5132800;27;20198;-66
2022/07/25 09:02:13;;;;;;;7.53;6.90;;;;;;;37.55;28.58;99261.81;5133975;27;20194;-65
2022/07/25 09:04:39;;;;;;;8.52;6.50;;;;;;;37.87;27.91;99254.66;5135013;27;20185;-68
2022/07/25 09:07:06;;;;;;;10.10;6.63;;;;;;;38.07;27.77;99250.50;5134759;27;20661;-67
2022/07/25 09:09:35;;;;;;;6.90;6.32;;;;;;;38.22;27.89;99255.00;5133799;27;20577;-66
2022/07/25 09:12:03;;;;;;;7.20;6.60;;;;;;;38.26;27.02;99253.03;5133129;27;20193;-69
2022/07/25 09:14:30;;;;;;;6.20;5.90;;;;;;;37.81;27.20;99247.06;5132218;27;20197;-66
2022/07/25 09:16:57;;;;;;;12.80;7.43;;;;;;;37.58;26.90;99249.97;5131108;27;20244;-65
2022/07/25 09:19:26;;;;;;;9.55;7.00;;;;;;;37.69;27.86;99239.81;5130779;27;20200;-70
2022/07/25 09:22:01;;;;;;;7.38;6.65;;;;;;;37.40;28.09;99242.66;5131159;27;20642;-67
2022/07/25 09:24:29;;;;;;;6.18;5.88;;;;;;;37.66;26.38;99246.13;5132155;27;20193;-73
2022/07/25 09:26:58;;;;;;;6.63;5.97;;;;;;;38.02;26.26;99233.38;5132400;27;20254;-67
2022/07/25 09:29:30;;;;;;;6.97;6.35;;;;;;;38.08;26.79;99235.44;5132875;27;20194;-66
2022/07/25 09:31:59;;;;;;;7.05;6.57;;;;;;;38.34;26.26;99238.03;5132380;27;20206;-68
2022/07/25 09:34:33;;;;;;;6.25;5.85;;;;;;;38.26;25.70;99241.94;5133415;27;20186;-65
2022/07/25 09:37:01;;;;;;;6.47;6.05;;;;;;;38.47;25.10;99236.56;5133037;27;20190;-66
2022/07/25 09:39:40;;;;;;;7.30;6.15;;;;;;;38.59;25.50;99233.47;5132823;27;20186;-66
2022/07/25 09:42:18;;;;;;;6.05;5.72;;;;;;;38.50;25.61;99241.31;5132442;27;20669;-65
2022/07/25 09:44:56;;;;;;;6.05;5.63;;;;;;;38.46;25.17;99232.13;5131968;27;20190;-69
2022/07/25 09:47:23;;;;;;;5.85;5.55;;;;;;;38.37;24.90;99226.13;5131183;27;20226;-65
2022/07/25 09:49:52;;;;;;;6.40;5.90;;;;;;;38.57;24.76;99241.38;5131055;27;20190;-68
2022/07/25 09:52:19;;;;;;;6.68;6.03;;;;;;;38.16;25.26;99233.53;5130821;27;20226;-65
2022/07/25 09:54:45;;;;;;;6.63;6.07;;;;;;;38.20;25.32;99239.91;5134756;27;20190;-65
2022/07/25 09:57:13;;;;;;;5.82;5.50;;;;;;;38.37;25.40;99237.25;5134014;27;20194;-65
2022/07/25 09:59:41;;;;;;;6.05;5.85;;;;;;;38.31;25.36;99222.16;5134651;27;20193;-65
2022/07/25 10:02:11;;;;;;;6.00;5.63;;;;;;;38.38;24.99;99227.75;5133054;27;20190;-65
2022/07/25 10:04:47;;;;;;;6.25;5.85;;;;;;;38.14;24.96;99224.78;5133911;27;20247;-65
2022/07/25 10:07:19;;;;;;;6.55;6.13;;;;;;;38.18;25.78;99218.09;5133580;27;20186;-66
2022/07/25 10:09:48;;;;;;;6.45;6.15;;;;;;;38.26;25.63;99219.72;5133170;27;20182;-65
2022/07/25 10:12:19;;;;;;;6.03;5.68;;;;;;;38.18;25.41;99207.00;5133319;27;20190;-65
2022/07/25 10:15:04;;;;;;;6.35;5.90;;;;;;;38.24;25.19;99210.16;5133756;27;20204;-65
2022/07/25 10:17:32;;;;;;;6.95;6.28;;;;;;;38.37;25.28;99203.94;5133841;27;20182;-66
2022/07/25 10:20:00;;;;;;;6.20;5.80;;;;;;;38.31;25.36;99199.94;5133326;27;20190;-64
2022/07/25 10:22:38;;;;;;;6.18;5.88;;;;;;;38.06;26.15;99207.28;5133185;27;20673;-65
2022/07/25 10:25:12;;;;;;;7.13;6.53;;;;;;;38.10;25.56;99197.03;5134500;27;20606;-66
2022/07/25 10:27:43;;;;;;;6.90;6.47;;;;;;;38.08;26.12;99188.25;5133119;27;20734;-66
2022/07/25 10:30:20;;;;;;;6.63;6.15;;;;;;;38.27;25.62;99188.00;5133357;27;20209;-65
2022/07/25 10:32:50;;;;;;;7.03;6.65;;;;;;;38.50;25.60;99185.78;5133568;27;20277;-67
2022/07/25 10:35:17;;;;;;;6.80;6.40;;;;;;;38.17;25.93;99182.38;5133851;27;20189;-64
2022/07/25 10:37:47;;;;;;;6.47;6.00;;;;;;;38.01;26.30;99179.88;5133362;27;20197;-66
2022/07/25 10:40:26;;;;;;;7.07;6.60;;;;;;;38.20;26.07;99171.31;5133296;27;20280;-67
2022/07/25 10:42:58;;;;;;;7.32;6.68;;;;;;;38.16;25.65;99176.03;5133323;27;20266;-65
2022/07/25 10:45:26;;;;;;;6.82;6.15;;;;;;;38.25;25.74;99176.47;5133860;27;20182;-68
2022/07/25 10:47:54;;;;;;;7.18;6.68;;;;;;;38.36;25.02;99169.03;5132960;27;20712;-65
2022/07/25 10:50:22;;;;;;;6.50;6.20;;;;;;;38.38;25.41;99166.69;5132965;27;20540;-66
2022/07/25 10:53:00;;;;;;;6.88;6.38;;;;;;;38.23;25.55;99167.75;5133074;27;20277;-65
2022/07/25 10:55:28;;;;;;;7.60;7.20;;;;;;;38.17;25.57;99158.19;5133568;27;20209;-65
2022/07/25 10:58:03;;;;;;;7.53;6.88;;;;;;;37.45;26.11;99159.94;5133169;27;20193;-66
2022/07/25 11:00:31;;;;;;;7.05;6.55;;;;;;;37.76;26.61;99172.53;5133464;28;20224;-65
2022/07/25 11:02:58;;;;;;;8.02;6.82;;;;;;;37.87;26.71;99146.47;5132727;28;20554;-66
2022/07/25 11:05:25;;;;;;;6.68;6.30;;;;;;;38.05;26.52;99155.72;5133328;28;20190;-67
2022/07/25 11:07:55;;;;;;;7.03;6.63;;;;;;;38.17;25.93;99155.41;5133202;27;20649;-67
2022/07/25 11:10:30;;;;;;;7.28;6.70;;;;;;;38.18;26.50;99162.59;5132985;27;20308;-67
2022/07/25 11:12:57;;;;;;;7.45;7.03;;;;;;;37.99;26.80;99160.03;5135453;27;20247;-65
2022/07/25 11:15:24;;;;;;;6.15;5.75;;;;;;;38.10;26.40;99152.63;5136998;27;20238;-66
2022/07/25 11:17:52;;;;;;;7.40;6.95;;;;;;;38.12;26.10;99150.25;5137028;27;20202;-66
2022/07/25 11:20:19;;;;;;;6.32;5.78;;;;;;;38.06;25.79;99146.25;5136978;27;20661;-66
2022/07/25 11:22:52;;;;;;;7.03;6.63;;;;;;;37.79;26.27;99142.03;5137063;27;20194;-67
2022/07/25 11:25:22;;;;;;;7.35;6.65;;;;;;;37.16;26.58;99127.59;5136810;27;20217;-66
2022/07/25 11:27:57;;;;;;;7.22;6.82;;;;;;;37.27;26.83;99134.00;5136946;27;20276;-66
2022/07/25 11:30:26;;;;;;;6.88;6.47;;;;;;;37.40;26.98;99131.78;5136657;27;20269;-66
2022/07/25 11:32:55;;;;;;;7.38;6.70;;;;;;;37.29;26.79;99126.13;5136895;27;20258;-65
2022/07/25 11:35:25;;;;;;;6.65;6.35;;;;;;;37.31;27.23;99112.66;5137332;27;20289;-65
2022/07/25 11:37:53;;;;;;;7.68;7.20;;;;;;;37.46;26.85;99111.63;5136607;27;20193;-65